createdAt,value
2018-02-08T00:00:12.493Z,0
2018-02-08T00:00:53.316Z,0
2018-02-08T00:01:33.731Z,0
2018-02-08T00:02:14.260Z,0
2018-02-08T00:02:55.145Z,0
2018-02-08T00:03:35.521Z,0
2018-02-08T00:04:15.898Z,0
2018-02-08T00:04:56.475Z,0
2018-02-08T00:05:36.947Z,0
2018-02-08T00:06:17.417Z,0
2018-02-08T00:06:58.093Z,0
2018-02-08T00:07:38.635Z,0
2018-02-08T00:08:19.084Z,0
2018-02-08T00:08:59.613Z,0
2018-02-08T00:09:40.470Z,0
2018-02-08T00:10:21.260Z,0
2018-02-08T00:11:01.720Z,0
2018-02-08T00:11:42.626Z,0
2018-02-08T00:12:23.230Z,0
2018-02-08T00:13:03.726Z,0
2018-02-08T00:13:44.519Z,0
2018-02-08T00:14:25.229Z,0
2018-02-08T00:15:05.679Z,0
2018-02-08T00:15:46.231Z,0
2018-02-08T00:16:26.748Z,0
2018-02-08T00:17:07.352Z,0
2018-02-08T00:17:48.015Z,0
2018-02-08T00:18:28.644Z,0
2018-02-08T00:19:08.924Z,0
2018-02-08T00:19:49.631Z,0
2018-02-08T00:20:30.023Z,0
2018-02-08T00:21:10.582Z,0
2018-02-08T00:21:51.310Z,0
2018-02-08T00:22:32.470Z,0
2018-02-08T00:23:13.228Z,0
2018-02-08T00:23:53.634Z,0
2018-02-08T00:24:34.068Z,0
2018-02-08T00:25:14.996Z,0
2018-02-08T00:25:55.728Z,0
2018-02-08T00:26:36.262Z,0
2018-02-08T00:27:16.857Z,0
2018-02-08T00:27:57.552Z,0
2018-02-08T00:28:38.054Z,0
2018-02-08T00:29:18.681Z,0
2018-02-08T00:29:59.225Z,0
2018-02-08T00:30:39.841Z,0
2018-02-08T00:31:20.476Z,0
2018-02-08T00:32:01.200Z,0
2018-02-08T00:32:41.571Z,0
2018-02-08T00:33:22.173Z,0
2018-02-08T00:34:02.595Z,0
2018-02-08T00:34:43.316Z,0
2018-02-08T00:35:24.425Z,0
2018-02-08T00:36:05.000Z,0
2018-02-08T00:36:45.661Z,0
2018-02-08T00:37:26.111Z,0
2018-02-08T00:38:06.525Z,0
2018-02-08T00:38:46.959Z,0
2018-02-08T00:39:27.572Z,0
2018-02-08T00:40:08.372Z,0
2018-02-08T00:40:48.802Z,0
2018-02-08T00:41:29.419Z,0
2018-02-08T00:42:09.877Z,0
2018-02-08T00:42:50.496Z,0
2018-02-08T00:43:31.056Z,0
2018-02-08T00:44:11.655Z,0
2018-02-08T00:44:51.982Z,0
2018-02-08T00:45:33.250Z,0
2018-02-08T00:46:14.260Z,0
2018-02-08T00:46:54.860Z,0
2018-02-08T00:47:35.323Z,0
2018-02-08T00:48:16.109Z,0
2018-02-08T00:48:56.659Z,0
2018-02-08T00:49:37.283Z,0
2018-02-08T00:50:17.521Z,0
2018-02-08T00:50:58.138Z,0
2018-02-08T00:51:38.834Z,0
2018-02-08T00:52:19.488Z,0
2018-02-08T00:53:00.213Z,0
2018-02-08T00:53:40.921Z,0
2018-02-08T00:54:21.781Z,0
2018-02-08T00:55:02.017Z,0
2018-02-08T00:55:42.822Z,0
2018-02-08T00:56:23.679Z,0
2018-02-08T00:57:04.458Z,0
2018-02-08T00:57:44.922Z,0
2018-02-08T00:58:25.582Z,0
2018-02-08T00:59:06.186Z,0
2018-02-08T00:59:46.848Z,0
2018-02-08T01:00:27.343Z,0
2018-02-08T01:01:07.786Z,0
2018-02-08T01:01:48.594Z,0
2018-02-08T01:02:29.119Z,0
2018-02-08T01:03:09.755Z,0
2018-02-08T01:03:50.517Z,0
2018-02-08T01:04:31.243Z,0
2018-02-08T01:05:11.727Z,0
2018-02-08T01:05:52.376Z,0
2018-02-08T01:06:33.087Z,0
2018-02-08T01:07:13.533Z,0
2018-02-08T01:07:54.204Z,0
2018-02-08T01:08:34.816Z,0
2018-02-08T01:09:15.290Z,0
2018-02-08T01:09:56.030Z,0
2018-02-08T01:10:36.648Z,0
2018-02-08T01:11:17.237Z,0
2018-02-08T01:11:57.916Z,0
2018-02-08T01:12:38.827Z,0
2018-02-08T01:13:19.211Z,0
2018-02-08T01:13:59.636Z,0
2018-02-08T01:14:40.473Z,0
2018-02-08T01:15:21.095Z,0
2018-02-08T01:16:01.858Z,0
2018-02-08T01:16:42.424Z,0
2018-02-08T01:17:22.823Z,0
2018-02-08T01:18:03.405Z,0
2018-02-08T01:18:43.909Z,0
2018-02-08T01:19:25.000Z,0
2018-02-08T01:20:05.595Z,0
2018-02-08T01:20:45.964Z,0
2018-02-08T01:21:26.748Z,0
2018-02-08T01:22:07.287Z,0
2018-02-08T01:22:47.736Z,0
2018-02-08T01:23:28.298Z,0
2018-02-08T01:24:09.009Z,0
2018-02-08T01:24:49.736Z,0
2018-02-08T01:25:30.409Z,0
2018-02-08T01:26:10.982Z,0
2018-02-08T01:26:51.484Z,0
2018-02-08T01:27:31.986Z,0
2018-02-08T01:28:12.623Z,0
2018-02-08T01:28:53.028Z,0
2018-02-08T01:29:33.613Z,0
2018-02-08T01:30:14.251Z,0
2018-02-08T01:30:54.871Z,0
2018-02-08T01:31:35.405Z,0
2018-02-08T01:32:15.747Z,0
2018-02-08T01:32:56.282Z,0
2018-02-08T01:33:37.027Z,0
2018-02-08T01:34:17.561Z,0
2018-02-08T01:34:58.066Z,0
2018-02-08T01:35:38.428Z,0
2018-02-08T01:36:19.011Z,0
2018-02-08T01:36:59.439Z,0
2018-02-08T01:37:39.975Z,0
2018-02-08T01:38:20.654Z,0
2018-02-08T01:39:01.172Z,0
2018-02-08T01:39:41.746Z,0
2018-02-08T01:40:22.393Z,0
2018-02-08T01:41:02.781Z,0
2018-02-08T01:41:43.131Z,0
2018-02-08T01:42:23.774Z,0
2018-02-08T01:43:04.250Z,0
2018-02-08T01:43:44.898Z,0
2018-02-08T01:44:25.418Z,0
2018-02-08T01:45:05.898Z,0
2018-02-08T01:45:46.439Z,0
2018-02-08T01:46:26.868Z,0
2018-02-08T01:47:07.368Z,0
2018-02-08T01:47:48.031Z,0
2018-02-08T01:48:28.529Z,0
2018-02-08T01:49:09.517Z,0
2018-02-08T01:49:50.152Z,0
2018-02-08T01:50:30.997Z,0
2018-02-08T01:51:11.915Z,0
2018-02-08T01:51:52.990Z,0
2018-02-08T01:52:33.466Z,0
2018-02-08T01:53:14.435Z,0
2018-02-08T01:53:54.889Z,0
2018-02-08T01:54:35.363Z,0
2018-02-08T01:55:15.935Z,0
2018-02-08T01:55:56.663Z,0
2018-02-08T01:56:37.106Z,0
2018-02-08T01:57:17.699Z,0
2018-02-08T01:57:58.415Z,0
2018-02-08T01:58:38.987Z,0
2018-02-08T01:59:19.235Z,0
2018-02-08T02:00:00.232Z,0
2018-02-08T02:00:40.669Z,0
2018-02-08T02:01:21.092Z,0
2018-02-08T02:02:01.778Z,0
2018-02-08T02:02:42.375Z,0
2018-02-08T02:03:22.863Z,0
2018-02-08T02:04:03.286Z,0
2018-02-08T02:04:43.855Z,0
2018-02-08T02:05:24.081Z,0
2018-02-08T02:06:04.610Z,0
2018-02-08T02:06:45.302Z,0
2018-02-08T02:07:25.846Z,0
2018-02-08T02:08:06.341Z,0
2018-02-08T02:08:46.900Z,0
2018-02-08T02:09:27.489Z,0
2018-02-08T02:10:07.954Z,0
2018-02-08T02:10:48.507Z,0
2018-02-08T02:11:28.902Z,0
2018-02-08T02:12:09.532Z,0
2018-02-08T02:12:49.928Z,0
2018-02-08T02:13:30.450Z,0
2018-02-08T02:14:11.608Z,0
2018-02-08T02:14:52.001Z,0
2018-02-08T02:15:32.783Z,0
2018-02-08T02:16:13.189Z,0
2018-02-08T02:16:53.587Z,0
2018-02-08T02:17:34.021Z,0
2018-02-08T02:18:14.543Z,0
2018-02-08T02:18:55.031Z,0
2018-02-08T02:19:36.381Z,0
2018-02-08T02:20:16.900Z,0
2018-02-08T02:20:57.368Z,0
2018-02-08T02:21:37.876Z,0
2018-02-08T02:22:18.561Z,0
2018-02-08T02:22:58.997Z,0
2018-02-08T02:23:39.574Z,0
2018-02-08T02:24:20.247Z,0
2018-02-08T02:25:00.624Z,0
2018-02-08T02:25:41.164Z,0
2018-02-08T02:26:22.134Z,0
2018-02-08T02:27:02.993Z,0
2018-02-08T02:27:43.448Z,0
2018-02-08T02:28:23.799Z,0
2018-02-08T02:29:04.586Z,0
2018-02-08T02:29:45.431Z,0
2018-02-08T02:30:26.320Z,0
2018-02-08T02:31:06.940Z,0
2018-02-08T02:31:47.570Z,0
2018-02-08T02:32:27.846Z,0
2018-02-08T02:33:08.421Z,0
2018-02-08T02:33:48.852Z,0
2018-02-08T02:34:29.309Z,0
2018-02-08T02:35:10.122Z,0
2018-02-08T02:35:50.935Z,0
2018-02-08T02:36:31.403Z,0
2018-02-08T02:37:12.028Z,0
2018-02-08T02:37:52.466Z,0
2018-02-08T02:38:33.036Z,0
2018-02-08T02:39:13.619Z,0
2018-02-08T02:39:54.292Z,0
2018-02-08T02:40:34.726Z,0
2018-02-08T02:41:15.483Z,0
2018-02-08T02:41:55.907Z,0
2018-02-08T02:42:36.248Z,0
2018-02-08T02:43:16.836Z,0
2018-02-08T02:43:57.205Z,0
2018-02-08T02:44:37.684Z,0
2018-02-08T02:45:18.191Z,0
2018-02-08T02:45:58.710Z,0
2018-02-08T02:46:39.176Z,0
2018-02-08T02:47:19.759Z,0
2018-02-08T02:48:00.289Z,0
2018-02-08T02:48:40.928Z,0
2018-02-08T02:49:21.423Z,0
2018-02-08T02:50:02.015Z,0
2018-02-08T02:50:42.567Z,0
2018-02-08T02:51:23.070Z,0
2018-02-08T02:52:03.508Z,0
2018-02-08T02:52:44.294Z,0
2018-02-08T02:53:24.749Z,0
2018-02-08T02:54:05.258Z,0
2018-02-08T02:54:45.807Z,0
2018-02-08T02:55:26.515Z,0
2018-02-08T02:56:07.012Z,0
2018-02-08T02:56:47.560Z,0
2018-02-08T02:57:28.566Z,0
2018-02-08T02:58:09.052Z,0
2018-02-08T02:58:49.421Z,0
2018-02-08T02:59:30.441Z,0
2018-02-08T03:00:10.909Z,0
2018-02-08T03:00:51.358Z,0
2018-02-08T03:01:32.121Z,0
2018-02-08T03:02:12.765Z,0
2018-02-08T03:02:53.187Z,0
2018-02-08T03:03:33.843Z,0
2018-02-08T03:04:14.220Z,0
2018-02-08T03:04:55.085Z,0
2018-02-08T03:05:35.608Z,0
2018-02-08T03:06:16.047Z,0
2018-02-08T03:06:56.646Z,0
2018-02-08T03:07:37.292Z,0
2018-02-08T03:08:17.844Z,0
2018-02-08T03:08:58.376Z,0
2018-02-08T03:09:38.924Z,0
2018-02-08T03:10:19.589Z,0
2018-02-08T03:11:00.119Z,0
2018-02-08T03:11:40.643Z,0
2018-02-08T03:12:21.589Z,0
2018-02-08T03:13:02.118Z,0
2018-02-08T03:13:42.610Z,0
2018-02-08T03:14:23.052Z,0
2018-02-08T03:15:04.038Z,0
2018-02-08T03:15:44.541Z,0
2018-02-08T03:16:25.185Z,0
2018-02-08T03:17:05.676Z,0
2018-02-08T03:17:46.478Z,0
2018-02-08T03:18:27.046Z,0
2018-02-08T03:19:07.969Z,0
2018-02-08T03:19:48.676Z,0
2018-02-08T03:20:29.506Z,0
2018-02-08T03:21:10.064Z,0
2018-02-08T03:21:50.969Z,0
2018-02-08T03:22:31.526Z,0
2018-02-08T03:23:12.404Z,0
2018-02-08T03:23:53.052Z,0
2018-02-08T03:24:33.726Z,0
2018-02-08T03:25:14.341Z,0
2018-02-08T03:25:55.021Z,0
2018-02-08T03:26:35.746Z,0
2018-02-08T03:27:16.326Z,0
2018-02-08T03:27:56.843Z,0
2018-02-08T03:28:37.495Z,0
2018-02-08T03:29:17.953Z,0
2018-02-08T03:29:58.449Z,0
2018-02-08T03:30:39.025Z,0
2018-02-08T03:31:19.596Z,0
2018-02-08T03:32:00.031Z,0
2018-02-08T03:32:41.354Z,0
2018-02-08T03:33:21.989Z,0
2018-02-08T03:34:02.699Z,0
2018-02-08T03:34:43.104Z,0
2018-02-08T03:35:23.683Z,0
2018-02-08T03:36:04.166Z,0
2018-02-08T03:36:44.756Z,0
2018-02-08T03:37:25.756Z,0
2018-02-08T03:38:06.105Z,0
2018-02-08T03:38:46.755Z,0
2018-02-08T03:39:27.324Z,0
2018-02-08T03:40:07.847Z,0
2018-02-08T03:40:48.334Z,0
2018-02-08T03:41:28.747Z,0
2018-02-08T03:42:09.305Z,0
2018-02-08T03:42:49.975Z,0
2018-02-08T03:43:30.455Z,0
2018-02-08T03:44:11.165Z,0
2018-02-08T03:44:51.776Z,0
2018-02-08T03:45:32.258Z,0
2018-02-08T03:46:12.790Z,0
2018-02-08T03:46:53.316Z,0
2018-02-08T03:47:33.827Z,0
2018-02-08T03:48:14.365Z,0
2018-02-08T03:48:54.909Z,0
2018-02-08T03:49:35.700Z,0
2018-02-08T03:50:16.213Z,0
2018-02-08T03:50:56.879Z,0
2018-02-08T03:51:37.492Z,0
2018-02-08T03:52:18.478Z,0
2018-02-08T03:52:58.880Z,0
2018-02-08T03:53:39.371Z,0
2018-02-08T03:54:20.000Z,0
2018-02-08T03:55:00.756Z,0
2018-02-08T03:55:41.296Z,0
2018-02-08T03:56:21.853Z,0
2018-02-08T03:57:02.326Z,0
2018-02-08T03:57:42.801Z,0
2018-02-08T03:58:23.472Z,0
2018-02-08T03:59:04.013Z,0
2018-02-08T03:59:44.791Z,0
2018-02-08T04:00:25.488Z,0
2018-02-08T04:01:06.053Z,0
2018-02-08T04:01:46.448Z,0
2018-02-08T04:02:27.394Z,0
2018-02-08T04:03:07.978Z,0
2018-02-08T04:47:38.470Z,0
2018-02-08T04:48:31.730Z,0
2018-02-08T04:49:23.955Z,0
2018-02-08T04:50:16.634Z,0
2018-02-08T04:51:09.090Z,0
2018-02-08T04:52:01.472Z,0
2018-02-08T04:52:53.899Z,0
2018-02-08T04:53:45.741Z,0
2018-02-08T04:54:37.905Z,0
2018-02-08T04:55:30.600Z,0
2018-02-08T04:56:22.945Z,0
2018-02-08T04:57:15.274Z,0
2018-02-08T04:58:07.876Z,0
2018-02-08T04:59:00.340Z,0
2018-02-08T04:59:52.528Z,0
2018-02-08T05:00:44.662Z,0
2018-02-08T05:01:36.328Z,0
2018-02-08T05:02:28.682Z,0
2018-02-08T05:03:20.902Z,0
2018-02-08T05:04:12.855Z,0
2018-02-08T05:05:05.103Z,0
2018-02-08T05:05:57.493Z,0
2018-02-08T05:06:50.494Z,0
2018-02-08T05:07:43.834Z,0
2018-02-08T05:08:35.700Z,0
2018-02-08T05:09:28.616Z,0
2018-02-08T05:10:21.132Z,0
2018-02-08T05:11:13.517Z,0
2018-02-08T05:12:05.341Z,0
2018-02-08T05:12:57.638Z,0
2018-02-08T05:13:51.690Z,0
2018-02-08T05:14:44.377Z,0
2018-02-08T05:15:36.525Z,0
2018-02-08T05:16:29.118Z,0
2018-02-08T05:17:21.036Z,0
2018-02-08T05:18:14.136Z,0
2018-02-08T05:19:06.383Z,0
2018-02-08T05:19:58.322Z,0
2018-02-08T05:20:50.570Z,0
2018-02-08T05:21:42.614Z,0
2018-02-08T05:22:35.095Z,0
2018-02-08T05:23:27.441Z,0
2018-02-08T05:24:19.966Z,0
2018-02-08T05:25:12.199Z,0
2018-02-08T05:26:05.281Z,0
2018-02-08T05:27:00.679Z,0
2018-02-08T05:27:53.448Z,0
2018-02-08T05:28:46.249Z,0
2018-02-08T05:29:38.677Z,0
2018-02-08T05:30:33.118Z,0
2018-02-08T05:31:25.451Z,0
2018-02-08T05:32:06.668Z,0
2018-02-08T05:32:47.309Z,0
2018-02-08T05:33:27.951Z,0
2018-02-08T05:34:09.153Z,0
2018-02-08T05:34:49.838Z,0
2018-02-08T05:35:30.419Z,0
2018-02-08T05:36:10.889Z,0
2018-02-08T05:36:51.541Z,0
2018-02-08T05:37:32.368Z,0
2018-02-08T05:38:13.426Z,0
2018-02-08T05:38:54.044Z,0
2018-02-08T05:39:35.256Z,0
2018-02-08T05:40:15.995Z,0
2018-02-08T05:40:56.937Z,0
2018-02-08T05:41:37.904Z,0
2018-02-08T05:42:18.624Z,0
2018-02-08T05:42:59.361Z,0
2018-02-08T05:43:39.952Z,0
2018-02-08T05:44:20.828Z,0
2018-02-08T05:45:01.603Z,0
2018-02-08T05:45:42.334Z,0
2018-02-08T05:46:22.679Z,0
2018-02-08T05:47:03.173Z,0
2018-02-08T05:47:43.504Z,0
2018-02-08T05:48:24.194Z,0
2018-02-08T05:49:05.343Z,0
2018-02-08T05:49:45.685Z,0
2018-02-08T05:50:26.156Z,0
2018-02-08T05:51:06.490Z,0
2018-02-08T05:51:46.879Z,0
2018-02-08T05:52:27.365Z,0
2018-02-08T05:53:07.730Z,0
2018-02-08T05:53:48.161Z,0
2018-02-08T05:54:28.540Z,0
2018-02-08T05:55:08.966Z,0
2018-02-08T05:55:49.336Z,0
2018-02-08T05:56:29.783Z,0
2018-02-08T05:57:10.192Z,0
2018-02-08T05:57:50.573Z,0
2018-02-08T05:58:30.914Z,0
2018-02-08T05:59:11.336Z,0
2018-02-08T05:59:51.709Z,0
2018-02-08T06:00:32.160Z,0
2018-02-08T06:01:12.577Z,0
2018-02-08T06:01:52.946Z,0
2018-02-08T06:02:33.344Z,0
2018-02-08T06:03:13.772Z,0
2018-02-08T06:03:54.203Z,0
2018-02-08T06:04:34.580Z,0
2018-02-08T06:05:14.964Z,0
2018-02-08T06:05:55.356Z,0
2018-02-08T06:06:35.783Z,0
2018-02-08T06:07:16.167Z,0
2018-02-08T06:07:56.567Z,0
2018-02-08T06:08:37.012Z,0
2018-02-08T06:09:17.445Z,0
2018-02-08T06:09:57.722Z,0
2018-02-08T06:10:38.168Z,0
2018-02-08T06:11:18.522Z,0
2018-02-08T06:11:58.925Z,0
2018-02-08T06:12:39.297Z,0
2018-02-08T06:13:19.687Z,0
2018-02-08T06:14:00.033Z,0
2018-02-08T06:14:40.474Z,0
2018-02-08T06:15:21.400Z,0
2018-02-08T06:16:01.885Z,0
2018-02-08T06:16:42.408Z,0
2018-02-08T06:17:22.795Z,0
2018-02-08T10:45:35.481Z,2076
2018-02-08T10:46:31.093Z,2080
2018-02-08T10:47:24.787Z,2060
2018-02-08T10:48:19.801Z,2100
2018-02-08T10:49:18.330Z,2088
2018-02-08T10:50:10.970Z,2072
2018-02-08T10:51:09.529Z,2124
2018-02-08T10:52:05.242Z,2120
2018-02-08T10:52:58.474Z,2104
2018-02-08T10:53:52.678Z,2060
2018-02-08T10:54:44.724Z,1976
2018-02-08T10:55:38.092Z,1964
2018-02-08T10:56:31.739Z,1940
2018-02-08T10:57:26.613Z,1984
2018-02-08T10:58:19.266Z,1980
2018-02-08T10:59:13.223Z,1976
2018-02-08T11:00:07.616Z,2020
2018-02-08T11:01:04.664Z,1988
2018-02-08T11:01:57.670Z,1928
2018-02-08T11:02:50.227Z,1916
2018-02-08T11:03:43.806Z,1900
2018-02-08T11:04:37.868Z,1876
2018-02-08T11:05:33.407Z,1872
2018-02-08T11:06:27.709Z,1816
2018-02-08T11:07:23.205Z,1804
2018-02-08T11:08:15.505Z,1792
2018-02-08T11:09:11.173Z,1780
2018-02-08T11:10:03.753Z,1816
2018-02-08T11:11:04.115Z,1772
2018-02-08T11:12:00.807Z,1732
2018-02-08T11:12:54.060Z,1740
2018-02-08T11:15:49.295Z,1872
2018-02-08T11:16:41.787Z,1860
2018-02-08T11:17:34.660Z,1860
2018-02-08T11:18:27.388Z,1840
2018-02-08T11:19:19.651Z,1832
2018-02-08T11:20:12.032Z,1836
2018-02-08T11:21:04.519Z,1840
2018-02-08T11:21:57.782Z,1840
2018-02-08T11:22:50.481Z,1824
2018-02-08T11:23:45.760Z,1840
2018-02-08T11:24:40.289Z,1828
2018-02-08T11:25:32.831Z,1824
2018-02-08T11:26:25.335Z,1808
2018-02-08T11:27:20.217Z,1784
2018-02-08T11:28:13.745Z,1784
2018-02-08T11:29:07.133Z,1760
2018-02-08T11:29:59.905Z,1672
2018-02-08T11:30:52.266Z,1696
2018-02-08T11:31:45.471Z,1752
2018-02-08T11:32:42.328Z,1780
2018-02-08T11:33:34.734Z,1788
2018-02-08T11:34:27.573Z,1804
2018-02-08T11:35:21.663Z,1804
2018-02-08T11:36:14.704Z,1804
2018-02-08T11:37:09.832Z,1796
2018-02-08T11:38:02.224Z,1792
2018-02-08T11:38:55.942Z,1784
2018-02-08T11:39:50.756Z,1784
2018-02-08T11:40:46.711Z,1780
2018-02-08T11:41:39.283Z,1776
2018-02-08T11:42:32.392Z,1776
2018-02-08T11:43:25.757Z,1772
2018-02-08T11:44:23.587Z,1768
2018-02-08T11:45:16.781Z,1756
2018-02-08T11:46:10.208Z,1748
2018-02-08T11:47:02.477Z,1748
2018-02-08T11:47:55.097Z,1740
2018-02-08T11:50:42.404Z,1720
2018-02-08T11:51:35.380Z,1720
2018-02-08T11:52:28.803Z,1712
2018-02-08T11:53:22.383Z,1708
2018-02-08T11:54:16.613Z,1700
2018-02-08T11:55:09.425Z,1696
2018-02-08T11:56:02.505Z,1688
2018-02-08T11:56:55.266Z,1680
2018-02-08T11:57:47.553Z,1664
2018-02-08T11:58:40.838Z,1660
2018-02-08T12:01:25.123Z,1652
2018-02-08T12:02:18.160Z,1660
2018-02-08T12:03:10.989Z,1656
2018-02-08T12:03:56.492Z,1648
2018-02-08T12:04:37.046Z,1648
2018-02-08T12:05:17.531Z,1640
2018-02-08T12:05:57.994Z,1640
2018-02-08T12:06:38.980Z,1632
2018-02-08T12:07:19.381Z,1636
2018-02-08T12:07:59.863Z,1624
2018-02-08T12:08:40.548Z,1608
2018-02-08T12:09:21.073Z,1600
2018-02-08T12:10:01.658Z,1592
2018-02-08T12:10:42.201Z,1584
2018-02-08T12:11:22.794Z,1572
2018-02-08T12:12:03.485Z,1564
2018-02-08T12:12:43.821Z,1560
2018-02-08T12:13:24.289Z,1556
2018-02-08T12:14:04.708Z,1556
2018-02-08T12:14:45.123Z,1552
2018-02-08T12:15:25.564Z,1536
2018-02-08T12:16:05.960Z,1532
2018-02-08T12:16:46.299Z,1528
2018-02-08T12:17:26.834Z,1524
2018-02-08T12:18:07.206Z,1520
2018-02-08T12:18:47.612Z,1512
2018-02-08T12:19:28.164Z,1504
2018-02-08T12:20:08.424Z,1492
2018-02-08T12:20:48.830Z,1484
2018-02-08T12:21:29.186Z,1472
2018-02-08T12:22:09.615Z,1444
2018-02-08T12:22:50.064Z,1452
2018-02-08T12:23:30.407Z,1456
2018-02-08T12:24:11.600Z,1464
2018-02-08T12:24:52.096Z,1456
2018-02-08T12:25:31.977Z,1436
2018-02-08T12:26:12.390Z,1376
2018-02-08T12:26:52.976Z,1396
2018-02-08T12:27:33.546Z,1420
2018-02-08T12:28:13.876Z,1432
2018-02-08T12:28:54.410Z,1432
2018-02-08T12:29:34.855Z,1452
2018-02-08T12:30:15.234Z,1488
2018-02-08T12:30:55.668Z,1496
2018-02-08T12:31:36.240Z,1500
2018-02-08T12:32:16.788Z,1508
2018-02-08T12:32:57.203Z,1508
2018-02-08T12:33:37.872Z,1508
2018-02-08T12:34:18.325Z,1512
2018-02-08T12:34:59.245Z,1504
2018-02-08T12:37:15.182Z,1492
2018-02-08T12:37:55.560Z,1488
2018-02-08T12:38:45.142Z,1496
2018-02-08T12:39:25.504Z,1500
2018-02-08T12:40:05.907Z,1488
2018-02-08T12:42:25.575Z,1440
2018-02-08T12:43:05.997Z,1444
2018-02-08T12:43:46.538Z,1428
2018-02-08T12:44:26.949Z,1428
2018-02-08T12:45:07.366Z,1428
2018-02-08T12:45:47.784Z,1432
2018-02-08T12:46:28.182Z,1432
2018-02-08T12:47:08.626Z,1428
2018-02-08T12:47:49.388Z,1428
2018-02-08T12:48:29.855Z,1428
2018-02-08T12:50:42.348Z,1428
2018-02-08T12:51:22.769Z,1432
2018-02-08T12:52:03.176Z,1420
2018-02-08T12:52:43.566Z,1388
2018-02-08T12:53:23.985Z,1384
2018-02-08T12:54:04.388Z,1364
2018-02-08T12:54:44.773Z,1344
2018-02-08T12:57:02.321Z,1316
2018-02-08T12:57:42.743Z,1312
2018-02-08T12:58:23.200Z,1312
2018-02-08T12:59:03.681Z,1304
2018-02-08T12:59:44.027Z,1304
2018-02-08T13:00:25.685Z,1296
2018-02-08T13:01:05.167Z,1276
2018-02-08T13:01:45.542Z,1284
2018-02-08T13:02:25.915Z,1280
2018-02-08T13:03:06.324Z,1284
2018-02-08T13:03:46.722Z,1288
2018-02-08T13:04:27.157Z,1300
2018-02-08T13:05:07.518Z,1288
2018-02-08T13:07:40.390Z,1312
2018-02-08T13:08:20.766Z,1316
2018-02-08T13:09:01.154Z,1324
2018-02-08T13:09:41.640Z,1316
2018-02-08T13:10:22.288Z,1308
2018-02-08T13:11:02.652Z,1328
2018-02-08T13:11:43.055Z,1332
2018-02-08T13:12:23.519Z,1332
2018-02-08T13:13:03.934Z,1332
2018-02-08T13:13:44.318Z,1336
2018-02-08T13:14:26.165Z,1340
2018-02-08T13:15:05.761Z,1348
2018-02-08T13:15:46.337Z,1336
2018-02-08T13:16:27.030Z,1332
2018-02-08T13:17:08.574Z,1332
2018-02-08T13:17:48.565Z,1328
2018-02-08T13:18:28.992Z,1324
2018-02-08T13:19:09.377Z,1320
2018-02-08T13:19:49.774Z,1320
2018-02-08T13:20:30.199Z,1332
2018-02-08T13:21:11.451Z,1332
2018-02-08T13:21:51.382Z,1332
2018-02-08T13:22:31.782Z,1336
2018-02-08T13:23:12.176Z,1336
2018-02-08T13:23:52.576Z,1328
2018-02-08T13:24:32.977Z,1328
2018-02-08T13:25:13.388Z,1320
2018-02-08T13:25:53.813Z,1312
2018-02-08T13:26:34.294Z,1312
2018-02-08T13:27:15.060Z,1312
2018-02-08T13:27:55.130Z,1304
2018-02-08T13:28:35.535Z,1304
2018-02-08T13:29:15.940Z,1312
2018-02-08T13:29:56.346Z,1308
2018-02-08T13:30:36.750Z,1284
2018-02-08T13:31:17.190Z,1292
2018-02-08T13:31:57.608Z,1316
2018-02-08T13:32:38.005Z,1320
2018-02-08T13:33:18.978Z,1324
2018-02-08T13:33:58.840Z,1332
2018-02-08T13:34:39.296Z,1336
2018-02-08T13:35:19.735Z,1332
2018-02-08T13:36:00.118Z,1332
2018-02-08T13:36:40.514Z,1324
2018-02-08T13:37:20.941Z,1324
2018-02-08T13:38:01.326Z,1320
2018-02-08T13:38:41.756Z,1316
2018-02-08T13:39:22.157Z,1308
2018-02-08T13:40:03.463Z,1296
2018-02-08T13:40:43.360Z,1292
2018-02-08T13:41:23.977Z,1288
2018-02-08T13:42:04.392Z,1284
2018-02-08T13:42:44.819Z,1276
2018-02-08T13:43:25.201Z,1268
2018-02-08T13:44:05.605Z,1260
2018-02-08T13:44:46.230Z,1256
2018-02-08T13:45:27.280Z,1252
2018-02-08T13:46:07.383Z,1244
2018-02-08T13:46:47.948Z,1236
2018-02-08T13:47:28.964Z,1232
2018-02-08T13:48:09.122Z,1216
2018-02-08T13:48:49.568Z,1216
2018-02-08T13:49:30.037Z,1196
2018-02-08T13:50:10.484Z,1188
2018-02-08T13:50:50.889Z,1180
2018-02-08T13:51:31.309Z,1172
2018-02-08T13:52:11.837Z,1164
2018-02-08T13:52:52.362Z,1152
2018-02-08T13:53:33.001Z,1140
2018-02-08T13:54:13.399Z,1132
2018-02-08T13:54:53.890Z,1120
2018-02-08T13:55:34.350Z,1112
2018-02-08T13:56:14.812Z,1100
2018-02-08T13:56:55.349Z,1088
2018-02-08T13:57:35.814Z,1076
2018-02-08T13:58:16.225Z,1068
2018-02-08T13:58:56.666Z,1060
2018-02-08T13:59:37.063Z,1056
2018-02-08T14:00:17.451Z,1048
2018-02-08T14:00:57.865Z,1036
2018-02-08T14:01:38.308Z,1028
2018-02-08T14:02:18.706Z,1024
2018-02-08T14:02:59.092Z,1020
2018-02-08T14:03:39.492Z,1020
2018-02-08T14:04:19.892Z,1016
2018-02-08T14:05:00.301Z,1016
2018-02-08T14:05:40.687Z,1012
2018-02-08T14:06:21.084Z,1016
2018-02-08T14:07:01.463Z,1008
2018-02-08T14:07:41.890Z,1008
2018-02-08T14:08:22.240Z,1004
2018-02-08T14:09:02.652Z,1004
2018-02-08T14:09:43.110Z,1004
2018-02-08T14:10:24.468Z,992
2018-02-08T14:11:04.573Z,984
2018-02-08T14:11:44.999Z,980
2018-02-08T14:12:25.553Z,976
2018-02-08T14:13:06.476Z,972
2018-02-08T14:13:46.570Z,968
2018-02-08T14:14:27.063Z,964
2018-02-08T14:15:07.419Z,956
2018-02-08T14:15:47.835Z,952
2018-02-08T14:16:28.241Z,952
2018-02-08T14:17:08.637Z,948
2018-02-08T14:17:49.010Z,948
2018-02-08T14:18:29.417Z,944
2018-02-08T14:19:09.820Z,940
2018-02-08T14:19:50.205Z,940
2018-02-08T14:20:30.630Z,936
2018-02-08T14:21:11.124Z,932
2018-02-08T14:21:51.621Z,936
2018-02-08T14:22:32.057Z,932
2018-02-08T14:23:12.459Z,932
2018-02-08T14:23:52.885Z,928
2018-02-08T14:24:33.376Z,928
2018-02-08T14:25:13.804Z,928
2018-02-08T14:25:54.197Z,928
2018-02-08T14:26:34.605Z,924
2018-02-08T14:27:15.028Z,920
2018-02-08T14:27:55.454Z,920
2018-02-08T14:28:35.895Z,916
2018-02-08T14:29:16.305Z,916
2018-02-08T14:29:56.668Z,916
2018-02-08T14:30:37.091Z,916
2018-02-08T14:31:17.503Z,912
2018-02-08T14:31:57.903Z,908
2018-02-08T14:32:38.283Z,908
2018-02-08T14:33:18.682Z,908
2018-02-08T14:33:59.084Z,904
2018-02-08T14:34:39.462Z,908
2018-02-08T14:35:19.896Z,904
2018-02-08T14:36:00.312Z,896
2018-02-08T14:36:40.746Z,896
2018-02-08T14:37:21.130Z,892
2018-02-08T14:38:01.542Z,884
2018-02-08T14:38:41.967Z,880
2018-02-08T14:39:22.341Z,880
2018-02-08T14:40:02.742Z,868
2018-02-08T14:40:43.128Z,864
2018-02-08T14:41:23.535Z,860
2018-02-08T14:42:03.964Z,856
2018-02-08T14:42:44.362Z,856
2018-02-08T14:43:24.777Z,852
2018-02-08T14:44:05.210Z,852
2018-02-08T14:44:45.593Z,848
2018-02-08T14:45:25.994Z,848
2018-02-08T14:46:06.396Z,840
2018-02-08T14:46:46.776Z,844
2018-02-08T14:47:27.224Z,840
2018-02-08T14:48:07.682Z,836
2018-02-08T14:48:48.102Z,836
2018-02-08T14:49:28.460Z,832
2018-02-08T14:50:08.870Z,824
2018-02-08T14:50:49.302Z,824
2018-02-08T14:51:30.475Z,820
2018-02-08T14:52:10.464Z,816
2018-02-08T14:52:50.915Z,816
2018-02-08T14:53:31.358Z,812
2018-02-08T14:54:11.720Z,812
2018-02-08T14:54:52.164Z,812
2018-02-08T14:55:32.565Z,812
2018-02-08T14:56:13.462Z,812
2018-02-08T14:56:53.530Z,812
2018-02-08T14:57:33.973Z,816
2018-02-08T14:58:14.353Z,812
2018-02-08T14:58:54.801Z,812
2018-02-08T14:59:35.175Z,812
2018-02-08T15:00:15.599Z,812
2018-02-08T15:00:55.964Z,816
2018-02-08T15:01:36.369Z,816
2018-02-08T15:02:16.765Z,812
2018-02-08T15:02:57.175Z,812
2018-02-08T15:03:37.570Z,808
2018-02-08T15:06:05.261Z,812
2018-02-08T15:06:45.652Z,812
2018-02-08T15:07:26.040Z,812
2018-02-08T15:08:06.483Z,816
2018-02-08T15:08:46.868Z,824
2018-02-08T15:09:27.262Z,828
2018-02-08T15:10:07.668Z,840
2018-02-08T15:10:48.040Z,848
2018-02-08T15:11:28.416Z,856
2018-02-08T15:12:08.830Z,868
2018-02-08T15:12:49.232Z,876
2018-02-08T15:13:29.613Z,876
2018-02-08T15:14:10.016Z,908
2018-02-08T15:14:50.427Z,948
2018-02-08T15:15:30.850Z,988
2018-02-08T15:16:11.261Z,996
2018-02-08T15:16:51.681Z,1008
2018-02-08T15:19:04.185Z,1060
2018-02-08T15:19:44.548Z,1088
2018-02-08T15:20:24.951Z,1124
2018-02-08T15:21:05.373Z,1188
2018-02-08T15:21:45.788Z,1256
2018-02-08T15:22:26.159Z,1320
2018-02-08T15:23:06.598Z,1340
2018-02-08T15:23:46.961Z,1340
2018-02-08T15:24:27.386Z,1320
2018-02-08T15:25:07.808Z,1340
2018-02-08T15:25:48.191Z,1404
2018-02-08T15:26:28.614Z,1456
2018-02-08T15:27:09.005Z,1500
2018-02-08T15:27:49.409Z,1540
2018-02-08T15:28:29.818Z,1544
2018-02-08T15:29:10.240Z,1572
2018-02-08T15:29:50.630Z,1600
2018-02-08T15:30:31.001Z,1632